createdAt,value
2022-09-27T00:01:37.128Z,89.90
2022-09-27T00:03:28.980Z,88.50
2022-09-27T00:05:19.863Z,89.70
2022-09-27T00:07:11.946Z,89.40
2022-09-27T00:09:02.471Z,89.20
2022-09-27T00:10:59.235Z,89.60
2022-09-27T00:12:50.065Z,89.90
2022-09-27T00:14:40.374Z,89.90
2022-09-27T00:16:32.086Z,89.90
2022-09-27T00:18:22.731Z,89.90
2022-09-27T00:20:13.453Z,89.60
2022-09-27T00:22:04.225Z,89.40
2022-09-27T00:23:55.918Z,89.60
2022-09-27T00:25:55.414Z,89.00
2022-09-27T00:27:45.978Z,87.40
2022-09-27T00:29:36.432Z,88.20
2022-09-27T00:31:28.787Z,88.20
2022-09-27T00:33:19.188Z,87.80
2022-09-27T00:35:09.855Z,87.10
2022-09-27T00:37:00.226Z,86.80
2022-09-27T00:38:50.644Z,87.60
2022-09-27T00:40:42.406Z,86.60
2022-09-27T00:42:33.001Z,86.80
2022-09-27T00:44:58.490Z,86.80
2022-09-27T00:46:54.009Z,86.10
2022-09-27T00:48:45.094Z,86.50
2022-09-27T00:50:38.458Z,85.70
2022-09-27T00:52:32.115Z,84.90
2022-09-27T00:54:24.426Z,85.90
2022-09-27T00:56:16.938Z,85.40
2022-09-27T00:58:07.641Z,85.50
2022-09-27T01:00:00.718Z,83.70
2022-09-27T01:01:51.624Z,85.00
2022-09-27T01:03:45.848Z,86.10
2022-09-27T01:05:36.831Z,85.30
2022-09-27T01:07:27.056Z,85.70
2022-09-27T01:09:17.621Z,85.50
2022-09-27T01:11:18.234Z,84.20
2022-09-27T01:13:14.049Z,83.80
2022-09-27T01:15:11.187Z,83.50
2022-09-27T01:17:08.480Z,83.90
2022-09-27T01:19:09.773Z,84.00
2022-09-27T01:21:25.915Z,81.80
2022-09-27T01:23:34.105Z,82.80
2022-09-27T01:25:44.685Z,82.10
2022-09-27T01:28:09.790Z,80.30
2022-09-27T01:30:21.262Z,81.10
2022-09-27T01:32:17.587Z,80.40
2022-09-27T01:34:13.624Z,81.10
2022-09-27T01:36:12.171Z,79.40
2022-09-27T01:38:09.548Z,78.70
2022-09-27T01:40:04.922Z,78.70
2022-09-27T01:42:01.643Z,79.30
2022-09-27T01:43:55.533Z,79.40
2022-09-27T01:45:51.604Z,79.90
2022-09-27T01:47:45.588Z,80.70
2022-09-27T01:49:41.329Z,79.60
2022-09-27T01:51:35.456Z,78.90
2022-09-27T01:53:29.507Z,78.90
2022-09-27T01:55:22.786Z,78.80
2022-09-27T01:57:18.719Z,79.90
2022-09-27T01:59:12.870Z,79.70
2022-09-27T02:01:05.943Z,79.00
2022-09-27T02:02:58.975Z,80.10
2022-09-27T02:04:50.487Z,80.00
2022-09-27T02:06:43.098Z,80.40
2022-09-27T02:08:37.947Z,79.50
2022-09-27T02:10:31.540Z,79.40
2022-09-27T02:12:26.328Z,79.10
2022-09-27T02:14:20.287Z,79.60
2022-09-27T02:16:20.759Z,80.60
2022-09-27T02:18:15.576Z,80.60
2022-09-27T02:20:12.821Z,82.10
2022-09-27T02:22:13.294Z,81.50
2022-09-27T02:24:05.447Z,79.60
2022-09-27T02:25:56.229Z,79.70
2022-09-27T02:27:52.862Z,79.80
2022-09-27T02:29:47.253Z,79.80
2022-09-27T02:31:38.923Z,80.50
2022-09-27T02:33:33.091Z,80.80
2022-09-27T02:35:27.770Z,81.50
2022-09-27T02:37:18.398Z,81.30
2022-09-27T02:39:09.261Z,81.10
2022-09-27T02:40:59.755Z,82.60
2022-09-27T02:42:51.142Z,83.20
2022-09-27T02:44:42.191Z,84.10
2022-09-27T02:46:56.140Z,83.70
2022-09-27T02:48:55.981Z,84.90
2022-09-27T02:51:11.829Z,84.90
2022-09-27T02:53:06.640Z,83.80
2022-09-27T02:55:02.991Z,85.50
2022-09-27T02:57:02.186Z,85.10
2022-09-27T02:58:58.442Z,86.00
2022-09-27T03:00:54.192Z,85.80
2022-09-27T03:02:53.416Z,86.40
2022-09-27T03:04:47.113Z,85.60
2022-09-27T03:06:39.896Z,85.90
2022-09-27T03:08:30.832Z,86.00
2022-09-27T03:10:18.477Z,86.00
2022-09-27T03:12:08.986Z,86.60
2022-09-27T03:14:08.714Z,86.80
2022-09-27T03:16:01.753Z,86.90
2022-09-27T03:17:53.950Z,86.60
2022-09-27T03:19:44.529Z,86.90
2022-09-27T03:21:35.875Z,86.80
2022-09-27T03:23:26.399Z,87.00
2022-09-27T03:25:17.013Z,87.10
2022-09-27T03:27:07.986Z,87.20
2022-09-27T03:28:58.432Z,86.40
2022-09-27T03:30:48.921Z,86.90
2022-09-27T03:32:44.104Z,87.20
2022-09-27T03:34:36.032Z,87.50
2022-09-27T03:36:26.454Z,87.30
2022-09-27T03:38:16.747Z,87.20
2022-09-27T03:40:08.577Z,87.80
2022-09-27T03:41:59.290Z,88.10
2022-09-27T03:43:49.879Z,87.30
2022-09-27T03:45:40.268Z,87.70
2022-09-27T03:47:30.559Z,87.90
2022-09-27T03:49:20.970Z,88.10
2022-09-27T03:51:13.283Z,88.30
2022-09-27T03:53:03.709Z,88.40
2022-09-27T03:54:57.384Z,88.40
2022-09-27T03:56:50.617Z,88.10
2022-09-27T03:58:41.381Z,88.40
2022-09-27T04:00:31.724Z,88.40
2022-09-27T04:02:22.358Z,88.00
2022-09-27T04:04:13.064Z,88.10
2022-09-27T04:06:03.869Z,88.30
2022-09-27T04:07:56.288Z,87.40
2022-09-27T04:09:46.625Z,86.70
2022-09-27T04:11:36.958Z,86.90
2022-09-27T04:13:27.234Z,87.30
2022-09-27T04:15:17.680Z,86.90
2022-09-27T04:17:08.219Z,87.50
2022-09-27T04:18:58.778Z,87.10
2022-09-27T04:20:49.215Z,87.20
2022-09-27T04:22:40.254Z,87.90
2022-09-27T04:24:32.346Z,88.40
2022-09-27T04:26:22.943Z,88.20
2022-09-27T04:28:13.367Z,87.80
2022-09-27T04:30:04.962Z,88.20
2022-09-27T04:31:55.298Z,88.80
2022-09-27T04:33:45.620Z,88.10
2022-09-27T04:35:35.931Z,88.60
2022-09-27T04:37:27.234Z,89.20
2022-09-27T04:39:17.850Z,88.40
2022-09-27T04:41:10.070Z,88.60
2022-09-27T04:43:00.464Z,88.90
2022-09-27T04:44:50.911Z,88.90
2022-09-27T04:46:41.457Z,88.90
2022-09-27T04:48:32.216Z,89.30
2022-09-27T04:50:22.892Z,89.70
2022-09-27T04:52:13.267Z,89.50
2022-09-27T04:54:03.675Z,89.50
2022-09-27T04:55:54.540Z,89.50
2022-09-27T04:57:47.170Z,89.00
2022-09-27T04:59:37.938Z,88.40
2022-09-27T05:01:28.714Z,88.40
2022-09-27T05:03:19.548Z,88.20
2022-09-27T05:05:10.192Z,88.90
2022-09-27T05:07:00.827Z,89.00
2022-09-27T05:08:51.655Z,88.90
2022-09-27T05:10:42.191Z,89.10
2022-09-27T05:12:32.842Z,88.80
2022-09-27T05:16:20.000Z,88.90
2022-09-27T05:18:10.198Z,88.90
2022-09-27T05:20:00.779Z,89.10
2022-09-27T05:21:51.390Z,89.80
2022-09-27T05:23:44.714Z,89.60
2022-09-27T05:25:38.289Z,89.10
2022-09-27T05:27:29.130Z,88.80
2022-09-27T05:29:19.724Z,89.40
2022-09-27T05:31:11.903Z,89.50
2022-09-27T05:33:02.186Z,89.70
2022-09-27T05:34:52.565Z,88.70
2022-09-27T05:36:42.826Z,88.50
2022-09-27T05:38:33.200Z,88.70
2022-09-27T05:40:40.299Z,88.40
2022-09-27T05:42:32.145Z,89.40
2022-09-27T05:44:22.540Z,89.30
2022-09-27T05:46:14.315Z,89.30
2022-09-27T05:48:05.036Z,89.30
2022-09-27T05:49:55.525Z,89.80
2022-09-27T05:51:46.090Z,89.50
2022-09-27T05:53:36.581Z,89.20
2022-09-27T05:55:27.001Z,89.20
2022-09-27T05:57:17.664Z,89.00
2022-09-27T05:59:08.330Z,89.50
2022-09-27T06:00:58.976Z,89.90
2022-09-27T06:02:55.286Z,89.70
2022-09-27T06:04:45.820Z,89.90
2022-09-27T06:06:37.043Z,89.90
2022-09-27T06:08:27.279Z,89.90
2022-09-27T06:10:18.155Z,89.90
2022-09-27T06:12:09.054Z,89.90
2022-09-27T06:13:59.389Z,89.90
2022-09-27T06:15:49.683Z,89.90
2022-09-27T06:17:40.114Z,89.90
2022-09-27T06:19:31.870Z,89.90
2022-09-27T06:21:22.702Z,89.90
2022-09-27T06:23:17.582Z,89.90
2022-09-27T06:25:08.881Z,89.90
2022-09-27T06:26:59.062Z,89.90
2022-09-27T06:28:49.266Z,89.90
2022-09-27T06:30:40.990Z,89.90
2022-09-27T06:32:31.690Z,89.90
2022-09-27T06:34:22.141Z,89.90
2022-09-27T06:36:14.229Z,89.90
2022-09-27T06:38:05.584Z,89.90
2022-09-27T06:39:56.515Z,89.90
2022-09-27T06:41:47.190Z,89.90
2022-09-27T06:43:37.888Z,89.90
2022-09-27T06:45:28.158Z,89.90
2022-09-27T06:47:18.523Z,89.90
2022-09-27T06:49:09.107Z,89.90
2022-09-27T06:50:59.678Z,89.90
2022-09-27T06:52:51.761Z,89.90
2022-09-27T06:54:42.197Z,89.90
2022-09-27T06:56:33.243Z,89.90
2022-09-27T06:58:23.955Z,89.90
2022-09-27T07:00:14.795Z,89.90
2022-09-27T07:02:05.780Z,89.90
2022-09-27T07:03:56.544Z,89.90
2022-09-27T07:05:55.098Z,89.90
2022-09-27T07:07:46.127Z,89.90
2022-09-27T07:09:38.514Z,89.90
2022-09-27T07:11:29.129Z,89.50
2022-09-27T07:13:19.692Z,89.20
2022-09-27T07:15:10.428Z,89.10
2022-09-27T07:17:00.946Z,88.90
2022-09-27T07:18:51.663Z,89.80
2022-09-27T07:20:42.213Z,89.90
2022-09-27T07:22:33.227Z,89.90
2022-09-27T07:24:23.766Z,89.90
2022-09-27T07:26:15.860Z,89.90
2022-09-27T07:28:06.925Z,89.90
2022-09-27T07:29:57.418Z,89.70
2022-09-27T07:31:47.808Z,89.90
2022-09-27T07:33:42.518Z,89.90
2022-09-27T07:35:33.435Z,89.90
2022-09-27T07:37:23.966Z,89.90
2022-09-27T07:39:14.673Z,89.90
2022-09-27T07:41:06.611Z,89.90
2022-09-27T07:42:58.851Z,89.90
2022-09-27T07:44:49.442Z,89.90
2022-09-27T07:46:39.880Z,89.90
2022-09-27T07:48:30.552Z,89.90
2022-09-27T07:50:21.392Z,89.80
2022-09-27T07:52:12.164Z,89.90
2022-09-27T07:54:07.895Z,89.90
2022-09-27T07:55:59.302Z,89.00
2022-09-27T07:57:49.970Z,89.60
2022-09-27T07:59:41.854Z,89.60
2022-09-27T08:01:34.102Z,89.00
2022-09-27T08:03:25.113Z,89.90
2022-09-27T08:05:15.817Z,88.60
2022-09-27T08:07:06.314Z,88.70
2022-09-27T08:08:56.952Z,89.10
2022-09-27T08:10:47.403Z,89.60
2022-09-27T08:12:39.434Z,89.70
2022-09-27T08:14:30.101Z,89.20
2022-09-27T08:16:22.067Z,88.90
2022-09-27T08:18:12.333Z,89.40
2022-09-27T08:20:02.788Z,88.40
2022-09-27T08:21:58.070Z,89.30
2022-09-27T08:23:49.385Z,88.40
2022-09-27T08:25:40.127Z,87.90
2022-09-27T08:27:30.478Z,88.70
2022-09-27T08:29:20.862Z,87.90
2022-09-27T08:31:11.281Z,89.10
2022-09-27T08:33:03.150Z,89.00
2022-09-27T08:34:54.055Z,89.70
2022-09-27T08:36:44.499Z,89.00
2022-09-27T08:38:35.323Z,89.10
2022-09-27T08:40:31.199Z,88.20
2022-09-27T08:42:30.461Z,88.90
2022-09-27T08:44:28.387Z,89.00
2022-09-27T08:46:27.334Z,89.70
2022-09-27T08:48:19.204Z,89.90
2022-09-27T08:50:18.498Z,89.90
2022-09-27T08:52:15.865Z,89.90
2022-09-27T08:54:08.628Z,89.20
2022-09-27T08:56:00.144Z,88.00
2022-09-27T08:57:55.015Z,89.90
2022-09-27T08:59:49.032Z,89.90
2022-09-27T09:01:39.685Z,89.10
2022-09-27T09:03:33.288Z,88.70
2022-09-27T09:05:28.793Z,89.50
2022-09-27T09:07:37.248Z,89.50
2022-09-27T09:09:36.681Z,89.90
2022-09-27T09:11:36.431Z,89.90
2022-09-27T09:13:40.510Z,89.90
2022-09-27T09:15:35.913Z,89.90
2022-09-27T09:17:38.004Z,89.90
2022-09-27T09:19:47.733Z,89.90
2022-09-27T09:21:45.924Z,89.90
2022-09-27T09:24:08.668Z,89.90
2022-09-27T09:26:00.328Z,89.90
2022-09-27T09:28:03.228Z,89.90
2022-09-27T09:30:05.306Z,89.90
2022-09-27T09:32:00.516Z,89.90
2022-09-27T09:33:54.309Z,89.90
2022-09-27T09:35:49.713Z,89.90
2022-09-27T09:37:43.025Z,89.90
2022-09-27T09:39:36.214Z,89.90
2022-09-27T09:41:29.963Z,89.90
2022-09-27T09:43:23.641Z,89.90
2022-09-27T09:45:17.429Z,89.90
2022-09-27T09:47:14.283Z,89.90
2022-09-27T09:49:10.524Z,89.90
2022-09-27T09:51:06.604Z,89.20
2022-09-27T09:53:01.111Z,87.50
2022-09-27T09:54:53.720Z,87.60
2022-09-27T09:56:48.151Z,87.10
2022-09-27T09:58:43.511Z,87.30
2022-09-27T10:00:34.296Z,87.40
2022-09-27T10:02:30.373Z,87.40
2022-09-27T10:04:23.137Z,88.10
2022-09-27T10:06:14.667Z,87.90
2022-09-27T10:08:07.988Z,88.40
2022-09-27T10:10:00.811Z,88.40
2022-09-27T10:11:51.522Z,89.30
2022-09-27T10:13:41.830Z,89.00
2022-09-27T10:15:33.507Z,89.90
2022-09-27T10:17:27.268Z,88.50
2022-09-27T10:19:21.395Z,89.20
2022-09-27T10:21:15.737Z,89.80
2022-09-27T10:23:13.572Z,89.90
2022-09-27T10:25:05.607Z,89.90
2022-09-27T10:27:00.178Z,89.90
2022-09-27T10:28:50.702Z,89.90
2022-09-27T10:30:41.089Z,89.90
2022-09-27T10:32:33.350Z,89.90
2022-09-27T10:34:25.351Z,89.90
2022-09-27T10:36:25.204Z,89.90
2022-09-27T10:38:22.980Z,89.90
2022-09-27T10:40:29.540Z,89.90
2022-09-27T10:42:21.832Z,89.90
2022-09-27T10:44:24.536Z,89.90
2022-09-27T10:46:22.585Z,89.90
2022-09-27T10:48:19.624Z,89.90
2022-09-27T10:50:38.723Z,89.90
2022-09-27T10:52:28.061Z,89.90
2022-09-27T10:54:20.954Z,89.90
2022-09-27T10:56:21.741Z,89.90
2022-09-27T10:58:18.859Z,89.90
2022-09-27T11:00:21.973Z,89.90
2022-09-27T11:02:19.943Z,89.90
2022-09-27T11:04:19.239Z,89.90
2022-09-27T11:06:24.726Z,89.90
2022-09-27T11:08:28.843Z,89.90
2022-09-27T11:10:24.999Z,89.90
2022-09-27T11:12:16.436Z,89.90
2022-09-27T11:14:18.299Z,89.90
2022-09-27T11:16:22.701Z,89.90
2022-09-27T11:18:20.245Z,89.90
2022-09-27T11:20:23.344Z,89.90
2022-09-27T11:22:28.700Z,89.90
2022-09-27T11:24:27.882Z,89.90
2022-09-27T11:26:31.935Z,89.90
2022-09-27T11:28:31.733Z,89.90
2022-09-27T11:30:23.990Z,89.90
2022-09-27T11:32:23.325Z,89.90
2022-09-27T11:34:30.262Z,89.90
2022-09-27T11:36:31.678Z,89.90
2022-09-27T11:38:48.378Z,89.90
2022-09-27T11:40:54.846Z,89.90
2022-09-27T11:43:06.867Z,89.90
2022-09-27T11:45:34.130Z,89.90
2022-09-27T11:47:28.831Z,89.90
2022-09-27T11:49:42.018Z,89.90
2022-09-27T11:51:43.215Z,89.90
2022-09-27T11:53:43.183Z,89.90
2022-09-27T11:55:45.267Z,89.90
2022-09-27T11:57:39.241Z,89.90
2022-09-27T11:59:43.498Z,89.90
2022-09-27T12:01:40.689Z,89.90
2022-09-27T12:04:04.711Z,89.90
2022-09-27T12:06:08.012Z,89.90
2022-09-27T12:08:10.892Z,89.90
2022-09-27T12:10:05.063Z,89.90
2022-09-27T12:12:01.102Z,89.90
2022-09-27T12:13:57.197Z,89.90
2022-09-27T12:15:48.262Z,89.90
2022-09-27T12:17:41.685Z,89.90
2022-09-27T12:19:35.398Z,89.90
2022-09-27T12:21:26.791Z,89.90
2022-09-27T12:23:21.535Z,89.90
2022-09-27T12:25:20.297Z,89.90
2022-09-27T12:27:15.397Z,86.40
2022-09-27T12:29:12.240Z,79.80
2022-09-27T12:31:27.987Z,79.70
2022-09-27T12:33:23.357Z,79.60
2022-09-27T12:35:18.418Z,78.50
2022-09-27T12:37:13.658Z,74.40
2022-09-27T12:39:09.670Z,75.40
2022-09-27T12:41:00.974Z,70.10
2022-09-27T12:42:55.833Z,73.20
2022-09-27T12:44:50.780Z,72.10
2022-09-27T12:46:50.654Z,71.90
2022-09-27T12:48:45.550Z,69.40
2022-09-27T12:50:38.306Z,70.60
2022-09-27T12:52:33.486Z,70.90
2022-09-27T12:54:38.315Z,71.70
2022-09-27T12:56:39.054Z,72.10
2022-09-27T12:58:59.961Z,71.60
2022-09-27T13:00:55.877Z,72.10
2022-09-27T13:03:26.077Z,73.60
2022-09-27T13:05:34.367Z,72.20
2022-09-27T13:07:34.751Z,74.40
2022-09-27T13:09:34.189Z,75.40
2022-09-27T13:11:28.396Z,72.80
2022-09-27T13:13:21.654Z,72.80
2022-09-27T13:15:16.821Z,73.50
2022-09-27T13:17:32.456Z,74.90
2022-09-27T13:19:41.575Z,71.60
2022-09-27T13:21:54.326Z,70.40
2022-09-27T13:23:54.065Z,69.10
2022-09-27T13:25:54.323Z,68.10
2022-09-27T13:27:45.838Z,66.90
2022-09-27T13:29:36.399Z,67.10
2022-09-27T13:32:00.199Z,67.00
2022-09-27T13:33:53.130Z,66.60
2022-09-27T13:36:21.532Z,66.70
2022-09-27T13:38:21.950Z,67.10
2022-09-27T13:40:27.632Z,69.10
2022-09-27T13:42:27.448Z,69.00
2022-09-27T13:44:20.525Z,67.10
2022-09-27T13:46:16.329Z,67.00
2022-09-27T13:48:16.194Z,68.60
2022-09-27T13:50:20.184Z,69.20
2022-09-27T13:52:19.805Z,70.40
2022-09-27T13:54:46.397Z,69.80
2022-09-27T13:56:52.791Z,69.10
2022-09-27T13:58:50.535Z,69.50
2022-09-27T14:00:43.598Z,68.30
2022-09-27T14:02:39.531Z,67.90
2022-09-27T14:04:32.842Z,66.60
2022-09-27T14:06:26.246Z,66.70
2022-09-27T14:08:23.575Z,65.90
2022-09-27T14:10:15.584Z,67.20
2022-09-27T14:12:11.518Z,65.40
2022-09-27T14:14:04.263Z,65.00
2022-09-27T14:15:59.066Z,64.70
2022-09-27T14:17:49.760Z,65.10
2022-09-27T14:19:41.447Z,65.20
2022-09-27T14:21:36.831Z,65.80
2022-09-27T14:23:27.370Z,66.00
2022-09-27T14:25:18.626Z,66.30
2022-09-27T14:27:15.039Z,67.10
2022-09-27T14:29:16.520Z,66.90
2022-09-27T14:31:11.447Z,67.30
2022-09-27T14:33:02.141Z,68.20
2022-09-27T14:35:07.766Z,68.10
2022-09-27T14:36:59.665Z,69.80
2022-09-27T14:38:50.340Z,71.70
2022-09-27T14:40:42.485Z,72.90
2022-09-27T14:42:33.465Z,73.30
2022-09-27T14:44:28.056Z,74.90
2022-09-27T14:46:26.265Z,77.50
2022-09-27T14:48:21.891Z,77.60
2022-09-27T14:50:18.907Z,78.00
2022-09-27T14:52:17.474Z,79.70
2022-09-27T14:54:20.968Z,78.50
2022-09-27T14:56:15.378Z,80.00
2022-09-27T14:58:06.241Z,81.30
2022-09-27T14:59:56.897Z,81.80
2022-09-27T15:01:49.249Z,82.30
2022-09-27T15:03:44.192Z,81.80
2022-09-27T15:05:35.605Z,83.00
2022-09-27T15:07:27.949Z,83.90
2022-09-27T15:09:18.858Z,84.20
2022-09-27T15:11:09.683Z,83.60
2022-09-27T15:13:01.650Z,85.30
2022-09-27T15:14:54.497Z,86.20
2022-09-27T15:16:45.657Z,85.90
2022-09-27T15:18:42.080Z,86.60
2022-09-27T15:20:35.688Z,87.10
2022-09-27T15:22:36.635Z,87.30
2022-09-27T15:24:38.281Z,86.50
2022-09-27T15:26:36.675Z,87.50
2022-09-27T15:28:37.110Z,85.60
2022-09-27T15:30:30.217Z,86.20
2022-09-27T15:32:22.864Z,85.50
2022-09-27T15:34:17.932Z,85.70
2022-09-27T15:36:10.320Z,86.40
2022-09-27T15:38:29.485Z,86.80
2022-09-27T15:41:02.386Z,86.60
2022-09-27T15:42:56.540Z,85.60
2022-09-27T15:44:48.446Z,86.60
2022-09-27T15:46:41.686Z,86.30
2022-09-27T15:48:33.339Z,86.20
2022-09-27T15:50:35.737Z,86.10
2022-09-27T15:52:40.476Z,86.00
2022-09-27T15:54:32.775Z,85.30
2022-09-27T15:56:23.472Z,85.30
2022-09-27T15:58:15.971Z,86.00
2022-09-27T16:00:07.715Z,86.00
2022-09-27T16:02:04.203Z,86.30
2022-09-27T16:03:58.849Z,85.90
2022-09-27T16:05:49.535Z,86.10
2022-09-27T16:07:40.136Z,86.70
2022-09-27T16:09:33.871Z,86.10
2022-09-27T16:11:26.847Z,86.60
2022-09-27T16:13:17.689Z,86.60
2022-09-27T16:15:09.279Z,87.10
2022-09-27T16:17:00.746Z,86.70
2022-09-27T16:18:54.625Z,86.70
2022-09-27T16:20:45.478Z,86.30
2022-09-27T16:22:36.285Z,86.70
2022-09-27T16:24:35.359Z,87.40
2022-09-27T16:26:28.101Z,86.50
2022-09-27T16:28:18.762Z,86.70
2022-09-27T16:30:10.916Z,86.80
2022-09-27T16:32:01.950Z,87.10
2022-09-27T16:33:53.093Z,86.70
2022-09-27T16:35:44.273Z,86.20
2022-09-27T16:37:35.225Z,86.40
2022-09-27T16:39:26.057Z,86.30
2022-09-27T16:41:20.601Z,86.30
2022-09-27T16:43:15.592Z,86.40
2022-09-27T16:45:11.237Z,86.80
2022-09-27T16:47:04.667Z,86.60
2022-09-27T16:48:58.031Z,85.70
2022-09-27T16:50:53.927Z,85.80
2022-09-27T16:52:49.156Z,86.50
2022-09-27T16:54:42.963Z,86.70
2022-09-27T16:56:39.449Z,87.40
2022-09-27T16:58:31.962Z,87.50
2022-09-27T17:00:22.994Z,87.30
2022-09-27T17:02:13.894Z,86.50
2022-09-27T17:04:05.126Z,86.80
2022-09-27T17:06:01.221Z,85.80
2022-09-27T17:07:52.577Z,86.00
2022-09-27T17:09:43.791Z,86.10
2022-09-27T17:11:34.867Z,85.90
2022-09-27T17:13:27.990Z,85.70
2022-09-27T17:15:26.700Z,86.10
2022-09-27T17:17:28.366Z,86.60
2022-09-27T17:19:21.259Z,87.20
2022-09-27T17:21:12.474Z,87.60
2022-09-27T17:23:06.612Z,87.60
2022-09-27T17:24:57.963Z,87.60
2022-09-27T17:26:50.761Z,87.00
2022-09-27T17:28:43.453Z,87.30
2022-09-27T17:30:38.142Z,87.80
2022-09-27T17:32:31.212Z,88.40
2022-09-27T17:34:22.219Z,88.30
2022-09-27T17:36:22.600Z,88.50
2022-09-27T17:38:13.315Z,87.90
2022-09-27T17:40:04.894Z,87.30
2022-09-27T17:41:55.962Z,86.40
2022-09-27T17:43:46.761Z,87.30
2022-09-27T17:45:41.478Z,86.80
2022-09-27T17:47:32.486Z,86.70
2022-09-27T17:49:22.854Z,85.80
2022-09-27T17:51:14.086Z,86.30
2022-09-27T17:53:04.803Z,86.70
2022-09-27T17:54:55.066Z,86.80
2022-09-27T17:56:46.792Z,87.10
2022-09-27T17:58:37.521Z,86.80
2022-09-27T18:00:27.891Z,87.90
2022-09-27T18:02:19.640Z,87.30
2022-09-27T18:04:11.567Z,87.80
2022-09-27T18:06:06.352Z,87.80
2022-09-27T18:07:56.810Z,88.70
2022-09-27T18:09:47.244Z,88.90
2022-09-27T18:11:38.874Z,89.00
2022-09-27T18:13:29.445Z,89.20
2022-09-27T18:15:19.824Z,88.70
2022-09-27T18:17:10.413Z,89.30
2022-09-27T18:19:03.445Z,89.40
2022-09-27T18:20:54.410Z,89.90
2022-09-27T18:22:45.357Z,89.90
2022-09-27T18:24:35.975Z,89.90
2022-09-27T18:26:27.757Z,89.90
2022-09-27T18:28:19.828Z,89.90
2022-09-27T18:30:11.200Z,89.90
2022-09-27T18:32:02.348Z,89.90
2022-09-27T18:33:55.814Z,89.90
2022-09-27T18:35:48.096Z,89.90
2022-09-27T18:37:38.747Z,89.90
2022-09-27T18:39:33.058Z,89.90
2022-09-27T18:41:25.245Z,89.90
2022-09-27T18:43:16.224Z,89.90
2022-09-27T18:45:07.826Z,89.90
2022-09-27T18:46:58.576Z,89.90
2022-09-27T18:48:51.625Z,89.90
2022-09-27T18:50:42.368Z,89.90
2022-09-27T18:52:35.348Z,89.90
2022-09-27T18:54:27.199Z,89.90
2022-09-27T18:56:18.261Z,89.90
2022-09-27T18:58:09.212Z,89.90
2022-09-27T19:00:03.603Z,89.90
2022-09-27T19:01:54.387Z,89.90
2022-09-27T19:03:45.318Z,89.90
2022-09-27T19:05:39.044Z,89.90
2022-09-27T19:07:29.900Z,89.90
2022-09-27T19:09:22.113Z,89.90
2022-09-27T19:11:16.606Z,89.90
2022-09-27T19:13:08.382Z,89.90
2022-09-27T19:14:59.025Z,89.90
2022-09-27T19:16:50.082Z,89.90
2022-09-27T19:18:40.655Z,89.90
2022-09-27T19:20:33.254Z,89.90
2022-09-27T19:22:23.886Z,89.90
2022-09-27T19:24:14.817Z,89.90
2022-09-27T19:26:08.578Z,89.90
2022-09-27T19:28:00.043Z,89.90
2022-09-27T19:29:51.313Z,89.90
2022-09-27T19:31:43.315Z,89.90
2022-09-27T19:33:39.252Z,89.90
2022-09-27T19:35:29.955Z,89.90
2022-09-27T19:37:20.374Z,89.90
2022-09-27T19:39:11.252Z,89.90
2022-09-27T19:41:05.178Z,89.90
2022-09-27T19:42:57.801Z,89.90
2022-09-27T19:44:48.882Z,89.90
2022-09-27T19:46:42.736Z,89.90
2022-09-27T19:48:35.094Z,89.90
2022-09-27T19:50:26.013Z,89.90
2022-09-27T19:52:21.111Z,89.90
2022-09-27T19:54:14.354Z,89.90
2022-09-27T19:56:06.600Z,89.90
2022-09-27T19:58:00.308Z,89.90
2022-09-27T19:59:51.070Z,89.90
2022-09-27T20:01:41.998Z,89.90
2022-09-27T20:03:33.560Z,89.90
2022-09-27T20:05:24.769Z,89.90
2022-09-27T20:07:15.655Z,89.90
2022-09-27T20:09:19.047Z,89.90
2022-09-27T20:11:11.546Z,89.90
2022-09-27T20:13:03.619Z,89.90
2022-09-27T20:14:56.409Z,89.90
2022-09-27T20:16:46.903Z,89.90
2022-09-27T20:18:39.760Z,89.90
2022-09-27T20:20:31.867Z,89.90
2022-09-27T20:22:22.384Z,89.90
2022-09-27T20:24:13.131Z,89.90
2022-09-27T20:26:08.139Z,89.90
2022-09-27T20:27:58.865Z,89.90
2022-09-27T20:29:51.194Z,89.90
2022-09-27T20:31:56.973Z,89.90
2022-09-27T20:33:52.425Z,89.90
2022-09-27T20:35:50.240Z,89.90
2022-09-27T20:37:41.015Z,89.90
2022-09-27T20:39:34.655Z,89.90
2022-09-27T20:41:25.879Z,89.90
2022-09-27T20:43:18.810Z,89.90
2022-09-27T20:45:12.322Z,89.90
2022-09-27T20:47:04.665Z,89.60
2022-09-27T20:48:57.757Z,89.90
2022-09-27T20:50:48.316Z,89.90
2022-09-27T20:52:38.955Z,89.90
2022-09-27T20:54:31.437Z,89.90
2022-09-27T20:56:22.854Z,89.90
2022-09-27T20:58:15.879Z,89.90
2022-09-27T21:00:07.957Z,89.90
2022-09-27T21:01:59.815Z,89.90
2022-09-27T21:03:53.496Z,89.90
2022-09-27T21:05:44.058Z,89.90
2022-09-27T21:07:34.946Z,89.90
2022-09-27T21:09:27.775Z,89.90
2022-09-27T21:11:18.990Z,89.90
2022-09-27T21:13:09.567Z,89.90
2022-09-27T21:15:02.922Z,89.90
2022-09-27T21:16:53.647Z,89.90
2022-09-27T21:18:47.986Z,89.80
2022-09-27T21:20:38.495Z,89.30
2022-09-27T21:22:29.474Z,89.90
2022-09-27T21:24:20.079Z,89.90
2022-09-27T21:26:12.086Z,89.90
2022-09-27T21:28:02.898Z,89.90
2022-09-27T21:29:53.883Z,89.90
2022-09-27T21:31:44.528Z,89.80
2022-09-27T21:33:36.002Z,89.90
2022-09-27T21:35:32.479Z,89.90
2022-09-27T21:37:23.625Z,89.90
2022-09-27T21:39:14.356Z,89.90
2022-09-27T21:41:07.648Z,89.90
2022-09-27T21:42:58.550Z,89.90
2022-09-27T21:44:49.396Z,89.90
2022-09-27T21:46:45.685Z,89.90
2022-09-27T21:48:37.942Z,89.90
2022-09-27T21:50:31.353Z,89.90
2022-09-27T21:52:21.818Z,89.90
2022-09-27T21:54:14.549Z,89.90
2022-09-27T21:56:09.161Z,89.90
2022-09-27T21:57:59.590Z,89.90
2022-09-27T21:59:51.852Z,89.90
2022-09-27T22:01:42.889Z,89.90
2022-09-27T22:03:34.994Z,89.90
2022-09-27T22:05:25.442Z,89.90
2022-09-27T22:07:17.647Z,89.90
2022-09-27T22:09:12.907Z,89.90
2022-09-27T22:11:04.330Z,89.90
2022-09-27T22:12:54.896Z,89.90
2022-09-27T22:14:45.497Z,89.90
2022-09-27T22:16:36.443Z,89.90
2022-09-27T22:18:29.141Z,89.90
2022-09-27T22:20:19.645Z,89.90
2022-09-27T22:22:10.575Z,89.90
2022-09-27T22:24:08.101Z,89.90
2022-09-27T22:26:00.028Z,89.90
2022-09-27T22:27:50.697Z,89.90
2022-09-27T22:29:41.100Z,89.90
2022-09-27T22:31:33.161Z,89.90
2022-09-27T22:33:23.878Z,89.90
2022-09-27T22:35:14.577Z,89.90
2022-09-27T22:37:05.272Z,89.90
2022-09-27T22:38:56.030Z,89.90
2022-09-27T22:40:55.203Z,89.90
2022-09-27T22:42:45.916Z,89.90
2022-09-27T22:44:36.526Z,89.90
2022-09-27T22:46:28.649Z,89.90
2022-09-27T22:48:19.583Z,89.90
2022-09-27T22:50:12.630Z,89.90
2022-09-27T22:52:03.178Z,89.90
2022-09-27T22:53:53.471Z,89.90
2022-09-27T22:55:44.051Z,89.90
2022-09-27T22:57:36.205Z,89.90
2022-09-27T22:59:27.476Z,89.90
2022-09-27T23:01:20.209Z,89.90
2022-09-27T23:03:10.889Z,89.90
2022-09-27T23:05:01.334Z,89.90
2022-09-27T23:06:51.994Z,89.90
2022-09-27T23:08:43.923Z,89.90
2022-09-27T23:10:34.784Z,89.90
2022-09-27T23:12:25.426Z,89.90
2022-09-27T23:14:17.421Z,89.90
2022-09-27T23:16:11.960Z,89.90
2022-09-27T23:18:02.782Z,89.90
2022-09-27T23:19:53.066Z,89.90
2022-09-27T23:21:43.760Z,89.90
2022-09-27T23:23:34.689Z,89.90
2022-09-27T23:25:24.963Z,89.90
2022-09-27T23:27:15.370Z,89.90
2022-09-27T23:29:06.438Z,89.90
2022-09-27T23:31:09.267Z,89.90
2022-09-27T23:33:06.153Z,89.90
2022-09-27T23:34:57.533Z,89.90
2022-09-27T23:36:48.227Z,89.90
2022-09-27T23:38:38.934Z,89.90
2022-09-27T23:40:29.891Z,89.90
2022-09-27T23:42:20.968Z,89.90
2022-09-27T23:44:11.601Z,89.90
2022-09-27T23:46:02.674Z,89.90
2022-09-27T23:47:57.543Z,89.90
2022-09-27T23:49:48.049Z,89.90
2022-09-27T23:51:38.791Z,89.90
2022-09-27T23:53:29.829Z,89.90
2022-09-27T23:55:20.449Z,89.90
2022-09-27T23:57:11.254Z,89.90
2022-09-27T23:59:04.561Z,89.90
